createdAt,value
2017-11-18T00:00:00.127Z,80.36
2017-11-18T00:02:25.943Z,79.77
2017-11-18T00:04:51.776Z,79.79
2017-11-18T00:07:17.574Z,80.13
2017-11-18T00:09:43.681Z,80.85
2017-11-18T00:12:09.499Z,80.87
2017-11-18T00:14:35.317Z,81.51
2017-11-18T00:17:01.155Z,81.72
2017-11-18T00:19:26.965Z,81.63
2017-11-18T00:21:53.678Z,81.53
2017-11-18T00:24:19.508Z,81.60
2017-11-18T00:26:45.309Z,81.29
2017-11-18T00:29:11.114Z,81.42
2017-11-18T00:31:36.941Z,81.12
2017-11-18T00:34:02.737Z,81.00
2017-11-18T00:36:28.545Z,81.53
2017-11-18T00:38:55.248Z,80.64
2017-11-18T00:41:21.050Z,80.71
2017-11-18T00:43:46.850Z,80.47
2017-11-18T00:46:12.673Z,80.07
2017-11-18T00:48:38.482Z,79.76
2017-11-18T00:51:04.662Z,79.51
2017-11-18T00:53:30.478Z,80.03
2017-11-18T00:55:56.281Z,80.05
2017-11-18T00:58:22.402Z,79.40
2017-11-18T01:00:48.232Z,79.96
2017-11-18T01:03:14.054Z,79.55
2017-11-18T01:05:40.063Z,79.90
2017-11-18T01:08:05.869Z,80.02
2017-11-18T01:10:31.686Z,79.33
2017-11-18T01:12:57.519Z,79.36
2017-11-18T01:15:23.335Z,79.41
2017-11-18T01:17:50.450Z,79.69
2017-11-18T01:20:16.618Z,79.58
2017-11-18T01:22:42.439Z,79.16
2017-11-18T01:25:08.242Z,79.26
2017-11-18T01:27:34.078Z,79.22
2017-11-18T01:29:59.901Z,79.01
2017-11-18T01:32:25.765Z,78.70
2017-11-18T01:34:51.590Z,78.77
2017-11-18T01:37:17.405Z,79.16
2017-11-18T01:39:43.208Z,78.79
2017-11-18T01:42:09.285Z,78.52
2017-11-18T01:44:35.102Z,78.54
2017-11-18T01:47:00.908Z,77.84
2017-11-18T01:49:26.746Z,78.23
2017-11-18T01:51:52.540Z,78.25
2017-11-18T01:54:18.333Z,77.71
2017-11-18T01:56:44.175Z,77.76
2017-11-18T01:59:10.000Z,78.26
2017-11-18T02:01:35.854Z,78.11
2017-11-18T02:04:01.696Z,78.31
2017-11-18T02:06:27.521Z,78.41
2017-11-18T02:08:53.345Z,78.71
2017-11-18T02:11:19.138Z,78.74
2017-11-18T02:13:44.954Z,78.34
2017-11-18T02:16:11.147Z,78.05
2017-11-18T02:18:36.964Z,79.18
2017-11-18T02:21:02.793Z,77.83
2017-11-18T02:23:28.618Z,78.04
2017-11-18T02:25:54.438Z,78.00
2017-11-18T02:28:20.264Z,77.26
2017-11-18T02:30:46.467Z,77.48
2017-11-18T02:33:12.299Z,77.69
2017-11-18T02:35:38.132Z,77.68
2017-11-18T02:38:03.980Z,77.73
2017-11-18T02:40:29.792Z,77.72
2017-11-18T02:42:55.603Z,77.40
2017-11-18T02:45:21.430Z,78.15
2017-11-18T02:47:47.272Z,78.01
2017-11-18T02:50:13.079Z,78.02
2017-11-18T02:52:38.910Z,77.64
2017-11-18T02:55:04.718Z,77.98
2017-11-18T02:57:30.537Z,77.89
2017-11-18T02:59:56.356Z,77.90
2017-11-18T03:02:22.177Z,77.64
2017-11-18T03:04:47.982Z,77.04
2017-11-18T03:07:13.811Z,76.70
2017-11-18T03:09:39.629Z,76.71
2017-11-18T03:12:05.436Z,76.30
2017-11-18T03:14:31.284Z,76.60
2017-11-18T03:16:57.133Z,76.64
2017-11-18T03:19:22.958Z,76.70
2017-11-18T03:21:48.819Z,76.28
2017-11-18T03:24:14.638Z,76.19
2017-11-18T03:26:40.446Z,76.19
2017-11-18T03:29:06.289Z,76.04
2017-11-18T03:31:32.105Z,75.83
2017-11-18T03:33:57.930Z,75.66
2017-11-18T03:36:23.751Z,75.88
2017-11-18T03:38:49.569Z,75.81
2017-11-18T03:41:15.388Z,76.13
2017-11-18T03:43:41.190Z,75.67
2017-11-18T03:46:07.004Z,75.62
2017-11-18T03:48:33.470Z,75.75
2017-11-18T03:50:59.294Z,75.88
2017-11-18T03:53:25.101Z,76.19
2017-11-18T03:55:51.190Z,75.89
2017-11-18T03:58:17.012Z,76.63
2017-11-18T04:00:48.930Z,76.35
2017-11-18T04:03:14.782Z,76.45
2017-11-18T04:05:40.604Z,76.41
2017-11-18T04:08:06.407Z,76.38
2017-11-18T04:10:32.255Z,76.70
2017-11-18T04:12:58.067Z,76.76
2017-11-18T04:15:23.909Z,76.92
2017-11-18T04:17:49.729Z,76.97
2017-11-18T04:20:22.422Z,77.33
2017-11-18T04:22:48.246Z,77.49
2017-11-18T04:25:14.083Z,77.53
2017-11-18T04:27:39.894Z,77.51
2017-11-18T04:30:05.709Z,78.10
2017-11-18T04:32:32.443Z,77.72
2017-11-18T04:34:58.272Z,77.92
2017-11-18T04:37:24.084Z,78.14
2017-11-18T04:39:49.954Z,77.96
2017-11-18T04:42:15.835Z,78.11
2017-11-18T04:44:41.684Z,78.35
2017-11-18T04:47:07.508Z,78.11
2017-11-18T04:49:33.841Z,79.13
2017-11-18T04:51:59.713Z,77.99
2017-11-18T04:54:25.524Z,78.04
2017-11-18T04:56:51.354Z,78.04
2017-11-18T04:59:17.184Z,77.64
2017-11-18T05:01:43.306Z,77.80
2017-11-18T05:04:09.119Z,78.21
2017-11-18T05:06:34.937Z,77.34
2017-11-18T05:09:00.763Z,77.87
2017-11-18T05:11:26.842Z,77.68
2017-11-18T05:13:52.657Z,77.83
2017-11-18T05:16:18.507Z,78.13
2017-11-18T05:18:44.357Z,78.61
2017-11-18T05:21:10.206Z,77.79
2017-11-18T05:23:36.012Z,78.00
2017-11-18T05:26:01.884Z,77.74
2017-11-18T05:28:27.703Z,77.89
2017-11-18T05:30:53.514Z,78.38
2017-11-18T05:33:19.350Z,77.94
2017-11-18T05:35:45.173Z,77.70
2017-11-18T05:38:10.998Z,78.03
2017-11-18T05:40:37.198Z,77.91
2017-11-18T05:43:03.038Z,78.18
2017-11-18T05:45:28.868Z,78.29
2017-11-18T05:47:54.687Z,78.45
2017-11-18T05:50:20.496Z,78.92
2017-11-18T05:52:46.418Z,78.33
2017-11-18T05:55:12.231Z,78.59
2017-11-18T05:57:38.096Z,78.81
2017-11-18T06:00:03.980Z,78.74
2017-11-18T06:02:29.799Z,79.16
2017-11-18T06:04:55.607Z,79.13
2017-11-18T06:07:21.459Z,79.79
2017-11-18T06:09:47.280Z,79.21
2017-11-18T06:12:13.094Z,79.93
2017-11-18T06:14:38.925Z,79.56
2017-11-18T06:17:04.742Z,79.55
2017-11-18T06:19:30.543Z,79.47
2017-11-18T06:21:56.615Z,79.76
2017-11-18T06:24:22.439Z,79.80
2017-11-18T06:26:48.249Z,79.51
2017-11-18T06:29:14.083Z,79.66
2017-11-18T06:31:39.895Z,80.05
2017-11-18T06:34:05.705Z,79.95
2017-11-18T06:36:31.554Z,79.74
2017-11-18T06:38:57.353Z,80.08
2017-11-18T06:41:23.157Z,80.14
2017-11-18T06:43:49.002Z,80.39
2017-11-18T06:46:14.824Z,80.25
2017-11-18T06:48:40.674Z,79.89
2017-11-18T06:51:06.490Z,80.34
2017-11-18T06:53:32.323Z,80.14
2017-11-18T06:55:58.188Z,79.81
2017-11-18T06:58:24.004Z,80.61
2017-11-18T07:00:49.835Z,80.01
2017-11-18T07:03:15.686Z,79.68
2017-11-18T07:05:41.510Z,79.63
2017-11-18T07:08:07.323Z,79.69
2017-11-18T07:10:33.195Z,79.62
2017-11-18T07:12:59.019Z,78.90
2017-11-18T07:15:24.851Z,79.07
2017-11-18T07:17:51.048Z,79.19
2017-11-18T07:20:16.878Z,78.34
2017-11-18T07:22:42.697Z,78.25
2017-11-18T07:25:08.617Z,78.84
2017-11-18T07:27:34.438Z,77.98
2017-11-18T07:30:00.245Z,78.42
2017-11-18T07:32:26.365Z,77.46
2017-11-18T07:34:52.207Z,77.09
2017-11-18T07:37:18.026Z,77.52
2017-11-18T07:39:43.835Z,76.90
2017-11-18T07:42:09.650Z,77.04
2017-11-18T07:44:35.446Z,76.86
2017-11-18T07:47:01.629Z,76.55
2017-11-18T07:49:27.424Z,76.26
2017-11-18T07:51:53.217Z,76.17
2017-11-18T07:54:19.053Z,78.53
2017-11-18T07:56:44.858Z,75.81
2017-11-18T07:59:10.668Z,76.24
2017-11-18T08:01:36.507Z,76.28
2017-11-18T08:04:02.339Z,76.54
2017-11-18T08:06:28.167Z,75.54
2017-11-18T08:08:54.137Z,75.60
2017-11-18T08:11:19.937Z,75.31
2017-11-18T08:13:45.752Z,75.21
2017-11-18T08:16:11.559Z,75.48
2017-11-18T08:18:37.414Z,75.39
2017-11-18T08:21:03.204Z,75.35
2017-11-18T08:23:29.004Z,75.15
2017-11-18T08:25:55.007Z,75.47
2017-11-18T08:28:20.824Z,75.53
2017-11-18T08:30:46.649Z,75.13
2017-11-18T08:33:12.503Z,75.06
2017-11-18T08:35:38.318Z,75.18
2017-11-18T08:38:04.131Z,74.91
2017-11-18T08:40:29.926Z,74.90
2017-11-18T08:42:55.743Z,74.94
2017-11-18T08:45:21.575Z,74.92
2017-11-18T08:47:47.505Z,75.45
2017-11-18T08:50:13.349Z,75.20
2017-11-18T08:52:39.163Z,75.19
2017-11-18T08:55:04.998Z,74.64
2017-11-18T08:57:31.122Z,74.76
2017-11-18T08:59:57.077Z,75.08
2017-11-18T09:02:22.900Z,75.79
2017-11-18T09:04:49.258Z,76.01
2017-11-18T09:07:15.077Z,75.67
2017-11-18T09:09:40.870Z,75.60
2017-11-18T09:12:06.865Z,76.14
2017-11-18T09:14:32.663Z,75.86
2017-11-18T09:16:58.551Z,75.43
2017-11-18T09:19:24.376Z,75.44
2017-11-18T09:21:50.182Z,75.53
2017-11-18T09:24:16.036Z,75.48
2017-11-18T09:26:41.866Z,75.17
2017-11-18T09:29:07.674Z,75.49
2017-11-18T09:31:33.605Z,75.03
2017-11-18T09:33:59.409Z,75.21
2017-11-18T09:36:25.545Z,75.06
2017-11-18T09:38:51.654Z,75.43
2017-11-18T09:41:17.520Z,75.18
2017-11-18T09:43:43.341Z,75.66
2017-11-18T09:46:09.434Z,76.29
2017-11-18T09:51:07.896Z,75.45
2017-11-18T09:53:33.746Z,76.08
2017-11-18T09:55:59.710Z,78.10
2017-11-18T09:58:25.539Z,78.73
2017-11-18T10:00:51.453Z,78.33
2017-11-18T10:03:17.271Z,77.99
2017-11-18T10:05:43.078Z,77.65
2017-11-18T10:08:08.886Z,78.17
2017-11-18T10:10:34.719Z,78.30
2017-11-18T10:13:00.545Z,78.00
2017-11-18T10:15:26.362Z,77.74
2017-11-18T10:17:52.164Z,78.44
2017-11-18T10:20:17.970Z,79.57
2017-11-18T10:22:43.869Z,81.83
2017-11-18T10:25:09.712Z,81.65
2017-11-18T10:27:35.540Z,83.44
2017-11-18T10:30:01.377Z,83.37
2017-11-18T10:32:27.198Z,84.26
2017-11-18T10:34:53.015Z,87.09
2017-11-18T10:37:18.847Z,86.87
2017-11-18T10:39:44.636Z,88.65
2017-11-18T10:42:10.454Z,88.48
2017-11-18T10:44:36.289Z,90.14
2017-11-18T10:47:02.102Z,89.87
2017-11-18T10:49:27.910Z,90.23
2017-11-18T10:51:53.755Z,91.76
2017-11-18T10:54:19.573Z,91.23
2017-11-18T10:56:45.383Z,92.67
2017-11-18T10:59:12.013Z,93.22
2017-11-18T11:01:37.812Z,93.65
2017-11-18T11:04:04.065Z,93.85
2017-11-18T11:06:29.929Z,93.89
2017-11-18T11:08:55.730Z,93.85
2017-11-18T11:11:21.529Z,94.32
2017-11-18T11:13:47.490Z,93.65
2017-11-18T11:16:13.347Z,94.50
2017-11-18T11:18:39.195Z,94.47
2017-11-18T11:21:05.044Z,94.34
2017-11-18T11:23:30.845Z,93.55
2017-11-18T11:25:56.679Z,93.40
2017-11-18T11:28:22.529Z,93.69
2017-11-18T11:30:48.367Z,93.49
2017-11-18T11:33:14.191Z,92.83
2017-11-18T11:35:40.270Z,94.36
2017-11-18T11:38:06.093Z,93.51
2017-11-18T11:40:31.923Z,93.94
2017-11-18T11:42:57.935Z,94.62
2017-11-18T11:45:23.753Z,94.25
2017-11-18T11:47:49.572Z,94.85
2017-11-18T11:50:15.391Z,94.26
2017-11-18T11:52:41.193Z,94.58
2017-11-18T11:55:07.165Z,94.47
2017-11-18T11:57:32.989Z,94.81
2017-11-18T11:59:58.791Z,94.16
2017-11-18T12:02:24.624Z,94.22
2017-11-18T12:04:50.418Z,94.06
2017-11-18T12:07:16.250Z,94.25
2017-11-18T12:09:42.095Z,94.52
2017-11-18T12:12:07.926Z,94.46
2017-11-18T12:14:33.748Z,94.32
2017-11-18T12:16:59.595Z,94.57
2017-11-18T12:19:25.428Z,94.49
2017-11-18T12:21:51.257Z,94.34
2017-11-18T12:24:17.127Z,94.31
2017-11-18T12:26:42.954Z,95.05
2017-11-18T12:29:08.797Z,95.18
2017-11-18T12:31:34.649Z,95.01
2017-11-18T12:34:00.454Z,95.39
2017-11-18T12:36:26.268Z,95.43
2017-11-18T12:38:52.481Z,94.96
2017-11-18T12:41:18.300Z,95.28
2017-11-18T12:43:44.095Z,95.11
2017-11-18T12:46:10.680Z,94.76
2017-11-18T12:48:37.011Z,95.10
2017-11-18T12:51:02.898Z,93.54
2017-11-18T12:53:28.764Z,93.57
2017-11-18T12:55:55.271Z,93.50
2017-11-18T12:58:22.163Z,92.57
2017-11-18T13:00:48.052Z,92.62
2017-11-18T13:03:13.902Z,91.79
2017-11-18T13:05:40.212Z,90.93
2017-11-18T13:08:06.744Z,91.42
2017-11-18T13:10:32.924Z,89.33
2017-11-18T13:12:58.792Z,91.93
2017-11-18T13:15:24.650Z,92.56
2017-11-18T13:17:50.874Z,91.90
2017-11-18T13:20:17.045Z,89.87
2017-11-18T13:22:42.945Z,90.46
2017-11-18T13:25:08.761Z,92.24
2017-11-18T13:27:34.603Z,92.77
2017-11-18T13:30:00.445Z,92.64
2017-11-18T13:32:26.250Z,93.23
2017-11-18T13:34:52.069Z,93.46
2017-11-18T13:37:18.110Z,93.38
2017-11-18T13:39:43.930Z,93.35
2017-11-18T13:42:09.737Z,92.58
2017-11-18T13:44:35.789Z,93.52
2017-11-18T13:47:01.663Z,93.16
2017-11-18T13:49:27.514Z,92.99
2017-11-18T13:51:53.370Z,93.50
2017-11-18T13:54:19.205Z,92.73
2017-11-18T13:56:45.013Z,91.56
2017-11-18T13:59:10.850Z,89.95
2017-11-18T14:01:36.730Z,89.15
2017-11-18T14:04:02.591Z,89.41
2017-11-18T14:06:28.436Z,90.13
2017-11-18T14:08:54.273Z,91.44
2017-11-18T14:11:20.130Z,91.18
2017-11-18T14:13:45.971Z,91.63
2017-11-18T14:16:11.829Z,89.82
2017-11-18T14:18:37.991Z,90.82
2017-11-18T14:21:05.018Z,90.73
2017-11-18T14:23:31.131Z,92.46
2017-11-18T14:25:57.055Z,91.87
2017-11-18T14:28:23.278Z,92.26
2017-11-18T14:30:49.111Z,92.37
2017-11-18T14:33:15.666Z,92.89
2017-11-18T14:35:42.395Z,93.03
2017-11-18T14:38:09.259Z,91.30
2017-11-18T14:40:35.646Z,91.46
2017-11-18T14:43:01.677Z,92.07
2017-11-18T14:45:28.591Z,92.30
2017-11-18T14:47:55.070Z,92.54
2017-11-18T14:50:20.952Z,93.05
2017-11-18T14:52:47.022Z,93.36
2017-11-18T14:55:13.207Z,93.03
2017-11-18T14:57:39.210Z,93.26
2017-11-18T15:00:06.098Z,93.35
2017-11-18T15:02:33.877Z,93.52
2017-11-18T15:05:01.181Z,93.59
2017-11-18T15:07:27.274Z,93.37
2017-11-18T15:09:53.242Z,93.68
2017-11-18T15:12:20.042Z,93.44
2017-11-18T15:14:52.157Z,93.64
2017-11-18T15:20:21.112Z,94.21
2017-11-18T15:22:52.652Z,93.90
2017-11-18T15:25:24.953Z,94.32
2017-11-18T15:27:57.234Z,94.40
2017-11-18T15:30:35.169Z,94.14
2017-11-18T15:33:18.163Z,94.26
2017-11-18T15:35:45.985Z,94.18
2017-11-18T15:38:18.039Z,94.00
2017-11-18T15:40:43.887Z,94.14
2017-11-18T15:43:11.538Z,94.27
2017-11-18T15:45:40.502Z,94.19
2017-11-18T15:48:12.587Z,94.05
2017-11-18T15:50:55.416Z,94.30
2017-11-18T15:53:21.246Z,94.28
2017-11-18T15:55:53.024Z,94.16
2017-11-18T15:58:30.637Z,94.06
2017-11-18T16:01:02.534Z,94.11
2017-11-18T16:03:28.382Z,93.96
2017-11-18T16:05:54.283Z,93.94
2017-11-18T16:08:20.115Z,93.92
2017-11-18T16:10:45.974Z,93.75
2017-11-18T16:13:11.816Z,93.37
2017-11-18T16:15:37.639Z,93.61
2017-11-18T16:18:03.483Z,93.32
2017-11-18T16:23:07.395Z,93.04
2017-11-18T16:25:33.234Z,93.00
2017-11-18T16:27:59.043Z,92.91
2017-11-18T16:30:24.969Z,92.62
2017-11-18T16:32:50.789Z,92.24
2017-11-18T16:35:16.608Z,91.92
2017-11-18T16:37:42.808Z,92.05
2017-11-18T16:40:08.620Z,91.10
2017-11-18T16:42:34.430Z,91.00
2017-11-18T16:45:00.585Z,91.10
2017-11-18T16:47:26.415Z,90.81
2017-11-18T16:49:52.329Z,90.14
2017-11-18T16:52:18.424Z,90.54
2017-11-18T16:54:44.580Z,90.32
2017-11-18T16:57:10.400Z,90.99
2017-11-18T16:59:36.222Z,90.76
2017-11-18T17:02:02.069Z,90.88
2017-11-18T17:04:28.000Z,90.82
2017-11-18T17:06:55.202Z,90.84
2017-11-18T17:09:21.138Z,91.03
2017-11-18T17:11:48.337Z,91.21
2017-11-18T17:14:15.126Z,91.50
2017-11-18T17:16:40.962Z,91.59
2017-11-18T17:19:06.905Z,91.59
2017-11-18T17:21:33.509Z,91.81
2017-11-18T17:23:59.644Z,91.92
2017-11-18T17:26:25.578Z,91.78
2017-11-18T17:28:51.395Z,91.33
2017-11-18T17:31:17.420Z,91.12
2017-11-18T17:33:44.077Z,91.35
2017-11-18T17:36:13.031Z,91.41
2017-11-18T17:38:38.911Z,91.14
2017-11-18T17:41:05.869Z,91.08
2017-11-18T17:43:39.272Z,91.49
2017-11-18T17:46:05.308Z,91.42
2017-11-18T17:48:31.155Z,91.47
2017-11-18T17:50:57.394Z,92.30
2017-11-18T17:53:24.938Z,91.32
2017-11-18T17:55:51.710Z,91.47
2017-11-18T17:58:18.262Z,91.53
2017-11-18T18:00:44.932Z,91.16
2017-11-18T18:03:12.749Z,91.18
2017-11-18T18:05:39.396Z,91.40
2017-11-18T18:08:06.416Z,91.47
2017-11-18T18:10:33.073Z,91.32
2017-11-18T18:12:59.642Z,91.32
2017-11-18T18:15:26.447Z,91.07
2017-11-18T18:17:53.377Z,90.85
2017-11-18T18:20:19.970Z,90.83
2017-11-18T18:22:47.301Z,90.87
2017-11-18T18:25:13.760Z,90.13
2017-11-18T18:27:40.621Z,90.72
2017-11-18T18:30:06.455Z,90.42
2017-11-18T18:32:32.321Z,90.04
2017-11-18T18:34:59.048Z,89.76
2017-11-18T18:37:26.645Z,89.74
2017-11-18T18:39:53.080Z,89.57
2017-11-18T18:42:20.070Z,89.11
2017-11-18T18:44:46.333Z,89.20
2017-11-18T18:47:12.876Z,89.04
2017-11-18T18:49:39.708Z,89.15
2017-11-18T18:52:06.347Z,88.89
2017-11-18T18:54:32.209Z,89.13
2017-11-18T18:56:59.276Z,89.08
2017-11-18T18:59:25.081Z,89.19
2017-11-18T19:01:51.627Z,89.75
2017-11-18T19:04:18.207Z,90.16
2017-11-18T19:06:44.292Z,90.88
2017-11-18T19:09:10.170Z,90.84
2017-11-18T19:11:35.995Z,90.71
2017-11-18T19:14:01.858Z,91.54
2017-11-18T19:16:27.713Z,92.67
2017-11-18T19:18:53.786Z,92.00
2017-11-18T19:21:19.654Z,91.91
2017-11-18T19:23:45.635Z,92.13
2017-11-18T19:26:11.469Z,91.44
2017-11-18T19:28:37.296Z,92.29
2017-11-18T19:31:03.251Z,91.72
2017-11-18T19:33:29.072Z,92.04
2017-11-18T19:35:54.926Z,92.19
2017-11-18T19:38:20.882Z,93.22
2017-11-18T19:40:46.794Z,94.00
2017-11-18T19:43:12.608Z,93.65
2017-11-18T19:45:39.376Z,92.33
2017-11-18T19:48:05.238Z,92.88
2017-11-18T19:50:31.693Z,93.50
2017-11-18T19:52:57.908Z,92.97
2017-11-18T19:55:24.695Z,93.59
2017-11-18T19:57:50.648Z,93.98
2017-11-18T20:00:16.931Z,93.31
2017-11-18T20:02:42.981Z,92.81
2017-11-18T20:05:09.010Z,92.55
2017-11-18T20:07:35.092Z,92.60
2017-11-18T20:10:01.539Z,92.75
2017-11-18T20:12:27.673Z,92.66
2017-11-18T20:14:53.801Z,92.94
2017-11-18T20:17:20.097Z,92.46
2017-11-18T20:19:46.337Z,92.53
2017-11-18T20:22:13.012Z,92.17
2017-11-18T20:24:39.959Z,92.61
2017-11-18T20:27:06.713Z,92.82
2017-11-18T20:29:32.608Z,91.47
2017-11-18T20:31:58.409Z,91.11
2017-11-18T20:34:24.238Z,90.23
2017-11-18T20:36:50.078Z,90.44
2017-11-18T20:39:15.931Z,90.27
2017-11-18T20:41:42.080Z,90.42
2017-11-18T20:44:08.279Z,90.81
2017-11-18T20:46:34.332Z,90.19
2017-11-18T20:49:00.179Z,90.92
2017-11-18T20:51:26.007Z,91.26
2017-11-18T20:53:52.458Z,91.32
2017-11-18T20:56:18.908Z,91.64
2017-11-18T20:58:44.984Z,91.50
2017-11-18T21:01:10.785Z,91.28
2017-11-18T21:03:36.601Z,91.69
2017-11-18T21:06:02.452Z,91.49
2017-11-18T21:08:28.254Z,91.66
2017-11-18T21:10:54.077Z,91.62
2017-11-18T21:13:19.919Z,92.07
2017-11-18T21:15:45.955Z,91.70
2017-11-18T21:18:11.782Z,91.68
2017-11-18T21:20:37.946Z,91.91
2017-11-18T21:23:04.569Z,91.95
2017-11-18T21:25:31.198Z,93.63
2017-11-18T21:27:57.627Z,93.91
2017-11-18T21:30:23.466Z,94.73
2017-11-18T21:32:49.287Z,95.32
2017-11-18T21:35:15.934Z,95.43
2017-11-18T21:37:42.508Z,95.50
2017-11-18T21:40:08.395Z,95.82
2017-11-18T21:42:34.503Z,95.55
2017-11-18T21:45:01.202Z,95.71
2017-11-18T21:47:27.446Z,95.34
2017-11-18T21:49:53.339Z,95.40
2017-11-18T21:52:19.574Z,95.31
2017-11-18T21:54:46.078Z,95.28
2017-11-18T21:57:11.910Z,95.71
2017-11-18T21:59:37.772Z,95.52
2017-11-18T22:02:04.313Z,94.92
2017-11-18T22:04:30.177Z,94.82
2017-11-18T22:06:56.721Z,94.83
2017-11-18T22:09:23.095Z,94.75
2017-11-18T22:11:48.992Z,94.85
2017-11-18T22:14:16.077Z,94.43
2017-11-18T22:16:41.898Z,94.98
2017-11-18T22:19:07.791Z,94.38
2017-11-18T22:21:34.506Z,94.70
2017-11-18T22:24:01.413Z,94.91
2017-11-18T22:26:27.317Z,94.55
2017-11-18T22:28:53.146Z,94.32
2017-11-18T22:31:18.983Z,94.83
2017-11-18T22:33:44.858Z,94.86
2017-11-18T22:36:10.673Z,94.91
2017-11-18T22:38:36.491Z,94.72
2017-11-18T22:41:02.646Z,95.29
2017-11-18T22:43:28.466Z,94.29
2017-11-18T22:45:54.279Z,93.76
2017-11-18T22:48:20.293Z,93.96
2017-11-18T22:50:46.203Z,94.32
2017-11-18T22:53:12.021Z,94.09
2017-11-18T22:55:37.861Z,94.50
2017-11-18T22:58:03.678Z,94.74
2017-11-18T23:00:40.417Z,94.72
2017-11-18T23:03:06.226Z,94.35
2017-11-18T23:05:32.035Z,94.86
2017-11-18T23:07:57.884Z,94.50
2017-11-18T23:10:24.090Z,94.87
2017-11-18T23:12:49.888Z,94.75
2017-11-18T23:15:15.720Z,94.82
2017-11-18T23:17:41.568Z,94.63
2017-11-18T23:20:07.403Z,94.19
2017-11-18T23:22:33.226Z,93.80
2017-11-18T23:24:59.042Z,94.32
2017-11-18T23:27:25.173Z,94.64
2017-11-18T23:29:50.997Z,94.36
2017-11-18T23:32:17.167Z,94.14
2017-11-18T23:34:43.423Z,94.18
2017-11-18T23:37:09.533Z,94.35
2017-11-18T23:39:35.339Z,94.23
2017-11-18T23:42:01.162Z,94.33
2017-11-18T23:44:26.978Z,94.02
2017-11-18T23:46:52.801Z,93.93
2017-11-18T23:49:18.791Z,93.86
2017-11-18T23:51:44.600Z,93.25
2017-11-18T23:54:10.497Z,94.21
2017-11-18T23:56:36.348Z,94.18
2017-11-18T23:59:02.563Z,93.98
